Podunk, Michigan
Current Conditions -  °F | °C
As of 3:53 PM on Saturday 25 Oct 2014 (Local Time) from KARB Reporting Station
Clear Clear  
Wind Chill: 69°   Ceiling: Unl
Heat Index: 69°   Visibility: 10mi
Dew Point: 39°   Wind: 24mph
Humidity: 33%   Direction: 280°W
Pressure: 29.75"   Gusts: 33mph
Location:  42.1633°N, 84.0265°W
Report Text: KARB 251953Z 28021G29KT 10SM CLR 21/04 A2975 RMK AO2 PK WND 30030/1925 RAB27E52 SLP075 P0000 T02060039
Loading
Personal Weather Stations






























Interactive Weather Map
Tropical Storm Tracking
New forecast layout! Learn more

10-Day Weather Forecast

Advertisements
Track Severe Weather on mobile